首页
METAR-TAF:

METAR-TAF

机场 :

努瓦克肖特国际机场

努瓦克肖特, 毛里塔尼亚

纬度: 18-18-36N, 经度: 015-58-11W, 海拔: 3米

当前天气观测

该预报发布于44分钟前的08:00 UTC
风速4节,风向东北
温度 24°C
湿度 78%
气压 1015 hPa
能見度: 8000
多云层高于1300英尺

METAR: GQNO 140800Z 05004KT 8000 BKN013 24/20 Q1015 NOSIG

时间: 08:44 (08:44 UTC)

预报

该预报发布于3小时和44分钟前的05:00 UTC
预报有效从14日的 06点(UTC)到 15日的 12点(UTC)
风速12节,风向西
能見度: 7000
几率 30% :
短暂存在
从 14日的 06点(UTC)到 14日的 10点(UTC)
多云层高于1000英尺
几率 40% :
短暂存在
从 14日的 14点(UTC)到 14日的 20点(UTC)
能見度: 4000
高吹尘

TAF: GQNO 140500Z 1406/1512 28012KT 7000 NSC PROB30 TEMPO 1406/1410 BKN010 PROB40 TEMPO 1414/1420 4000 BLDU

超过4000个机场的气象观测和天气预报(METAR&TAF报告)。

可查询的气象台以黄色和红色小点在地图上表示。

将鼠标移到小点上方,可查看气象台名称。

然后点击查看天气观测和预报。

如需切换地图:点击带黑十字的绿色按钮放大地图;点击带横线的绿色按钮缩小地图;或者点击绿色箭头查看邻近地区的地图。


METAR-TAF: